Time;durP1;ratioP1;P1;durP2;ratioP2;P2;SDS_P1;SDS_P2;PMS_P1;PMS_P2;Temp;Humidity;BMP_temperature;BMP_pressure;BME280_temperature;BME280_humidity;BME280_pressure;Samples;Min_cycle;Max_cycle;Signal;HPM_P1;HPM_P2
2020/12/03 00:01:15;;;;;;;16.00;8.02;;;7.00;75.60;;;;;;5025704;28;20516;-74
2020/12/03 00:03:46;;;;;;;13.60;7.43;;;7.00;75.60;;;;;;5026311;28;20168;-75
2020/12/03 00:06:20;;;;;;;10.57;7.15;;;7.00;75.60;;;;;;5025517;28;20179;-75
2020/12/03 00:08:57;;;;;;;11.63;6.68;;;7.00;75.70;;;;;;5025439;28;20049;-74
2020/12/03 00:11:26;;;;;;;14.43;7.07;;;7.00;75.70;;;;;;5025159;28;20174;-75
2020/12/03 00:13:52;;;;;;;10.45;5.97;;;7.00;75.70;;;;;;5026214;28;20029;-75
2020/12/03 00:16:19;;;;;;;11.02;6.75;;;7.10;75.80;;;;;;5027218;28;20341;-75
2020/12/03 00:18:45;;;;;;;11.05;6.50;;;7.10;75.90;;;;;;5025745;28;20036;-75
2020/12/03 00:21:13;;;;;;;10.93;6.82;;;7.10;75.90;;;;;;5025219;28;20042;-75
2020/12/03 00:23:41;;;;;;;11.13;5.70;;;7.10;75.90;;;;;;5025927;28;20025;-74
2020/12/03 00:26:08;;;;;;;12.60;6.05;;;7.10;75.80;;;;;;5027019;28;20037;-75
2020/12/03 00:28:37;;;;;;;10.50;5.28;;;7.20;76.00;;;;;;5026586;28;20032;-75
2020/12/03 00:31:05;;;;;;;8.70;5.50;;;7.20;76.00;;;;;;5026496;28;20025;-74
2020/12/03 00:33:31;;;;;;;12.85;6.78;;;7.20;76.00;;;;;;5026988;28;20037;-75
2020/12/03 00:35:57;;;;;;;11.77;6.25;;;7.20;76.00;;;;;;5026582;28;20037;-75
2020/12/03 00:38:25;;;;;;;9.00;6.15;;;7.20;76.00;;;;;;5025272;28;20045;-75
2020/12/03 00:40:51;;;;;;;11.60;5.60;;;7.20;76.00;;;;;;5024646;28;20037;-74
2020/12/03 00:43:18;;;;;;;12.13;5.45;;;7.20;75.90;;;;;;5025210;28;20549;-75
2020/12/03 00:45:46;;;;;;;8.02;5.47;;;7.30;76.10;;;;;;5008073;28;20486;-74
2020/12/03 00:48:17;;;;;;;7.60;5.03;;;7.30;76.10;;;;;;5024616;28;20555;-75
2020/12/03 00:50:44;;;;;;;10.20;4.97;;;7.30;76.10;;;;;;5026559;28;20095;-75
2020/12/03 00:53:10;;;;;;;8.82;5.15;;;7.30;76.10;;;;;;5008205;28;20037;-75
2020/12/03 00:55:37;;;;;;;9.95;4.70;;;7.30;76.10;;;;;;5024226;28;20047;-76
2020/12/03 00:58:05;;;;;;;13.73;5.68;;;7.30;76.00;;;;;;5024575;28;20120;-74
2020/12/03 01:00:31;;;;;;;9.82;4.57;;;7.30;76.00;;;;;;5024814;28;20033;-75
2020/12/03 01:02:57;;;;;;;7.40;4.43;;;7.30;76.00;;;;;;5026697;28;20048;-75
2020/12/03 01:05:23;;;;;;;5.00;3.80;;;7.40;76.20;;;;;;5025725;28;20117;-75
2020/12/03 01:07:49;;;;;;;7.13;4.47;;;7.40;76.20;;;;;;5026740;28;20128;-75
2020/12/03 01:10:24;;;;;;;10.68;4.72;;;7.40;76.30;;;;;;5026565;28;20087;-75
2020/12/03 01:12:50;;;;;;;5.88;4.13;;;7.40;76.30;;;;;;5024647;28;20033;-75
2020/12/03 01:15:17;;;;;;;8.23;3.90;;;7.40;76.30;;;;;;5025590;28;20115;-75
2020/12/03 01:17:43;;;;;;;8.43;4.95;;;7.40;76.30;;;;;;5024417;28;20048;-75
2020/12/03 01:20:12;;;;;;;9.23;4.55;;;7.40;76.70;;;;;;5024678;28;20102;-75
2020/12/03 01:22:38;;;;;;;8.65;4.20;;;7.40;76.30;;;;;;5025633;28;20042;-75
2020/12/03 01:25:06;;;;;;;7.07;4.25;;;7.40;76.20;;;;;;5024567;28;20120;-74
2020/12/03 01:27:32;;;;;;;8.05;4.55;;;7.40;76.20;;;;;;5026322;28;20061;-74
2020/12/03 01:29:58;;;;;;;6.60;3.95;;;7.50;76.40;;;;;;5024367;28;20460;-75
2020/12/03 01:32:24;;;;;;;9.82;4.18;;;7.40;76.20;;;;;;5024477;28;20049;-74
2020/12/03 01:34:50;;;;;;;6.80;3.97;;;7.50;76.40;;;;;;5025756;28;20037;-75
2020/12/03 01:37:17;;;;;;;10.18;4.43;;;7.50;76.40;;;;;;5025499;28;20024;-74
2020/12/03 01:39:45;;;;;;;9.55;4.45;;;7.50;76.40;;;;;;5024540;28;20195;-75
2020/12/03 01:42:12;;;;;;;5.45;3.50;;;7.50;76.40;;;;;;5024486;28;20045;-75
2020/12/03 01:44:47;;;;;;;7.93;3.75;;;7.50;76.40;;;;;;5024085;28;20029;-75
2020/12/03 01:47:22;;;;;;;6.20;4.07;;;7.50;76.40;;;;;;5025467;28;20063;-75
2020/12/03 01:49:49;;;;;;;7.65;3.70;;;7.50;76.40;;;;;;5024738;28;20052;-75
2020/12/03 01:52:15;;;;;;;8.55;3.78;;;7.50;76.40;;;;;;5023714;28;20021;-75
2020/12/03 01:54:41;;;;;;;9.38;4.63;;;7.50;76.40;;;;;;5024988;28;20140;-75
2020/12/03 01:57:10;;;;;;;7.55;4.13;;;7.50;76.40;;;;;;5025371;28;20026;-75
2020/12/03 01:59:37;;;;;;;6.00;3.50;;;7.50;76.40;;;;;;5025583;28;20037;-74
2020/12/03 02:02:05;;;;;;;8.48;3.78;;;7.50;76.40;;;;;;5025748;28;20132;-75
2020/12/03 02:04:31;;;;;;;6.15;3.83;;;7.50;76.40;;;;;;5024508;28;20638;-75
2020/12/03 02:07:03;;;;;;;5.25;3.50;;;7.50;76.40;;;;;;5025309;28;20068;-75
2020/12/03 02:09:29;;;;;;;9.35;3.80;;;7.50;76.40;;;;;;5024433;28;20033;-75
2020/12/03 02:11:56;;;;;;;7.40;3.22;;;7.50;76.40;;;;;;5025657;28;20430;-75
2020/12/03 02:14:23;;;;;;;8.48;3.30;;;7.50;76.40;;;;;;5025755;28;20399;-75
2020/12/03 02:16:49;;;;;;;6.95;3.40;;;7.50;76.40;;;;;;5007565;28;20040;-75
2020/12/03 02:19:20;;;;;;;4.07;3.38;;;7.50;76.40;;;;;;5023833;28;20084;-74
2020/12/03 02:22:02;;;;;;;9.90;4.10;;;7.50;76.40;;;;;;5023724;28;20871;-75
2020/12/03 02:24:35;;;;;;;6.22;3.13;;;7.50;76.50;;;;;;5025042;28;20410;-74
2020/12/03 02:27:01;;;;;;;4.43;2.92;;;7.50;76.50;;;;;;5024401;28;20130;-75
2020/12/03 02:29:28;;;;;;;5.32;3.60;;;7.50;76.40;;;;;;5023323;28;20029;-74
2020/12/03 02:31:54;;;;;;;5.75;3.70;;;7.50;76.40;;;;;;5023494;28;20437;-74
2020/12/03 02:34:20;;;;;;;6.75;2.83;;;7.50;76.50;;;;;;5024740;28;20026;-75
2020/12/03 02:36:54;;;;;;;6.68;2.95;;;7.50;76.50;;;;;;5010868;28;20083;-75
2020/12/03 02:39:22;;;;;;;6.78;3.08;;;7.60;76.60;;;;;;5028807;28;20029;-75
2020/12/03 02:41:48;;;;;;;4.68;3.10;;;7.50;76.50;;;;;;5027383;28;20500;-74
2020/12/03 02:44:16;;;;;;;7.20;3.33;;;7.60;76.60;;;;;;5028066;28;20033;-75
2020/12/03 02:46:42;;;;;;;6.97;3.20;;;7.60;76.60;;;;;;5022782;28;20499;-74
2020/12/03 02:49:09;;;;;;;3.88;2.40;;;7.50;76.50;;;;;;5027579;28;20558;-75
2020/12/03 02:51:40;;;;;;;4.68;2.67;;;7.50;76.40;;;;;;5022086;28;20057;-74
2020/12/03 02:54:08;;;;;;;7.38;2.78;;;7.50;76.40;;;;;;5012563;28;20056;-74
2020/12/03 02:56:35;;;;;;;6.80;3.30;;;7.50;77.00;;;;;;5011753;28;20087;-74
2020/12/03 02:59:03;;;;;;;6.13;3.03;;;7.60;76.60;;;;;;5011833;28;20116;-75
2020/12/03 03:01:28;;;;;;;4.15;3.00;;;7.60;76.60;;;;;;5026820;28;20045;-74
2020/12/03 03:03:55;;;;;;;9.02;3.03;;;7.50;76.50;;;;;;5026549;28;20117;-75
2020/12/03 03:06:20;;;;;;;5.07;3.28;;;7.60;76.70;;;;;;5010695;28;20034;-75
2020/12/03 03:08:46;;;;;;;6.25;2.70;;;7.60;76.70;;;;;;5011748;28;20049;-74
2020/12/03 03:11:12;;;;;;;3.42;2.85;;;7.60;76.70;;;;;;5010430;28;20133;-73
2020/12/03 03:13:39;;;;;;;5.25;2.25;;;7.60;76.70;;;;;;5012156;28;20508;-74
2020/12/03 03:16:05;;;;;;;5.93;2.90;;;7.60;76.60;;;;;;5011576;28;20108;-75
2020/12/03 03:18:30;;;;;;;7.28;3.03;;;7.60;76.70;;;;;;5009993;28;20824;-75
2020/12/03 03:20:56;;;;;;;8.60;3.22;;;7.60;76.60;;;;;;5011945;28;20045;-75
2020/12/03 03:23:22;;;;;;;6.65;3.33;;;7.60;76.60;;;;;;5011105;28;20073;-74
2020/12/03 03:25:49;;;;;;;7.25;3.03;;;7.60;76.60;;;;;;5009940;28;20026;-74
2020/12/03 03:28:15;;;;;;;6.18;2.28;;;7.60;76.60;;;;;;5010290;28;20040;-75
2020/12/03 03:30:41;;;;;;;4.15;2.75;;;7.60;76.60;;;;;;5011642;28;20034;-74
2020/12/03 03:33:07;;;;;;;8.57;2.60;;;7.60;76.60;;;;;;5010239;28;20057;-75
2020/12/03 03:35:33;;;;;;;5.75;3.15;;;7.70;76.80;;;;;;5026129;28;20033;-74
2020/12/03 03:37:59;;;;;;;5.38;3.08;;;7.70;76.80;;;;;;5026280;28;20040;-74
2020/12/03 03:40:25;;;;;;;5.25;2.67;;;7.60;76.60;;;;;;5011508;28;20099;-74
2020/12/03 03:42:51;;;;;;;6.32;3.10;;;7.70;76.80;;;;;;5026486;28;20033;-74
2020/12/03 03:45:17;;;;;;;7.93;2.80;;;7.70;76.80;;;;;;5009584;28;20022;-74
2020/12/03 03:47:44;;;;;;;11.63;3.30;;;7.70;76.80;;;;;;5008928;28;20052;-74
2020/12/03 03:50:10;;;;;;;6.50;2.60;;;7.70;76.80;;;;;;5026230;28;20036;-75
2020/12/03 03:52:36;;;;;;;4.45;2.75;;;7.60;76.60;;;;;;5011145;28;20052;-75
2020/12/03 03:55:04;;;;;;;5.05;2.30;;;7.70;76.80;;;;;;4993538;28;20033;-75
2020/12/03 03:57:30;;;;;;;8.35;3.30;;;7.70;76.80;;;;;;5010165;28;20033;-75
2020/12/03 03:59:56;;;;;;;5.65;2.38;;;7.70;76.70;;;;;;5011057;28;20480;-75
2020/12/03 04:02:23;;;;;;;5.07;2.47;;;7.70;76.80;;;;;;5010740;28;20044;-75
2020/12/03 04:04:50;;;;;;;8.50;3.20;;;7.60;76.60;;;;;;5025554;28;20057;-75
2020/12/03 04:07:17;;;;;;;7.70;2.75;;;7.60;76.60;;;;;;5010675;28;20168;-75
2020/12/03 04:09:43;;;;;;;5.30;2.42;;;7.60;76.60;;;;;;5026072;28;20520;-74
2020/12/03 04:12:10;;;;;;;8.07;2.97;;;7.70;76.80;;;;;;5009711;28;20037;-75
2020/12/03 04:14:36;;;;;;;4.03;2.30;;;7.70;76.80;;;;;;5010838;28;20037;-74
2020/12/03 04:17:03;;;;;;;7.57;2.60;;;7.70;76.80;;;;;;5008939;28;20099;-74
2020/12/03 04:19:29;;;;;;;3.78;2.90;;;7.60;76.60;;;;;;5009488;28;20109;-74
2020/12/03 04:21:55;;;;;;;9.35;3.00;;;7.60;76.60;;;;;;5010168;28;20038;-74
2020/12/03 04:24:21;;;;;;;3.00;2.53;;;7.60;76.70;;;;;;5009309;28;20040;-74
2020/12/03 04:26:47;;;;;;;9.60;2.90;;;7.70;76.80;;;;;;5010118;28;20041;-74
2020/12/03 04:29:16;;;;;;;6.07;2.47;;;7.60;76.70;;;;;;5025678;28;20080;-74
2020/12/03 04:31:43;;;;;;;4.22;2.50;;;7.60;76.70;;;;;;5025627;28;20056;-74
2020/12/03 04:34:09;;;;;;;3.85;2.33;;;7.70;76.80;;;;;;5010283;28;20030;-73
2020/12/03 04:36:36;;;;;;;6.10;2.60;;;7.60;76.70;;;;;;5025096;28;20030;-74
2020/12/03 04:39:03;;;;;;;4.80;2.40;;;7.70;76.80;;;;;;5008800;28;20584;-74
2020/12/03 04:41:29;;;;;;;2.53;1.90;;;7.70;76.90;;;;;;5024432;28;20073;-75
2020/12/03 04:44:06;;;;;;;3.45;2.17;;;7.70;76.90;;;;;;5009754;28;20032;-75
2020/12/03 04:47:11;;;;;;;5.20;2.50;;;7.70;76.90;;;;;;5009874;28;20057;-75
2020/12/03 04:49:49;;;;;;;5.18;2.35;;;7.60;76.70;;;;;;4994304;28;20033;-74
2020/12/03 04:52:57;;;;;;;8.35;2.65;;;7.60;76.60;;;;;;5010035;28;20030;-74
2020/12/03 04:55:25;;;;;;;6.53;2.28;;;7.60;76.60;;;;;;5024933;28;20366;-74
2020/12/03 04:58:11;;;;;;;5.53;2.47;;;7.60;76.60;;;;;;5007937;28;20390;-74
2020/12/03 05:00:43;;;;;;;4.53;1.90;;;7.70;76.80;;;;;;5010011;28;20504;-74
2020/12/03 05:03:31;;;;;;;5.05;2.40;;;7.60;76.60;;;;;;5008418;28;20091;-75
2020/12/03 05:06:21;;;;;;;2.50;2.22;;;7.60;76.60;;;;;;5014041;28;20041;-74
2020/12/03 05:08:47;;;;;;;4.32;2.75;;;7.60;76.60;;;;;;5018642;28;20041;-74
2020/12/03 05:11:25;;;;;;;6.10;2.72;;;7.70;76.80;;;;;;5009612;28;20053;-74
2020/12/03 05:14:15;;;;;;;5.13;2.22;;;7.60;76.70;;;;;;5008180;28;20038;-75
2020/12/03 05:17:15;;;;;;;5.05;2.15;;;7.60;76.60;;;;;;5008952;28;20091;-75
2020/12/03 05:20:00;;;;;;;4.07;2.10;;;7.60;76.60;;;;;;5008123;28;20523;-74
2020/12/03 05:22:27;;;;;;;5.88;2.45;;;7.60;76.60;;;;;;5009469;28;20421;-75
2020/12/03 05:24:53;;;;;;;4.82;2.53;;;7.60;76.60;;;;;;5009366;28;20064;-75
2020/12/03 05:27:24;;;;;;;3.15;2.47;;;7.60;76.60;;;;;;5008288;28;20083;-75
2020/12/03 05:29:50;;;;;;;3.15;2.10;;;7.60;77.20;;;;;;5009735;28;20057;-75
2020/12/03 05:32:16;;;;;;;2.67;2.03;;;7.60;76.70;;;;;;5009257;28;20037;-75
2020/12/03 05:34:43;;;;;;;6.00;2.60;;;7.60;76.70;;;;;;5008293;28;20068;-74
2020/12/03 05:37:13;;;;;;;3.58;2.05;;;7.60;76.70;;;;;;5023329;28;20116;-75
2020/12/03 05:39:49;;;;;;;6.43;2.28;;;7.60;76.70;;;;;;5008610;28;20382;-74
2020/12/03 05:42:21;;;;;;;3.35;2.30;;;7.60;76.70;;;;;;5024453;28;20458;-74
2020/12/03 05:44:57;;;;;;;2.60;2.15;;;7.60;76.70;;;;;;5007851;28;20549;-74
2020/12/03 05:47:29;;;;;;;5.05;2.45;;;7.60;76.70;;;;;;5020012;28;20450;-74
2020/12/03 05:50:03;;;;;;;4.05;2.15;;;7.60;76.70;;;;;;5010493;28;20038;-74
2020/12/03 05:52:31;;;;;;;4.00;2.35;;;7.60;76.70;;;;;;5005812;28;20018;-75
2020/12/03 05:54:59;;;;;;;3.30;1.98;;;7.60;76.70;;;;;;5021008;28;20041;-74
2020/12/03 05:57:41;;;;;;;6.47;3.30;;;7.60;76.70;;;;;;5004432;28;20045;-74
2020/12/03 06:00:17;;;;;;;2.90;1.80;;;7.50;76.50;;;;;;5017276;28;20199;-74
2020/12/03 06:02:55;;;;;;;3.58;2.28;;;7.60;76.70;;;;;;5022842;28;20076;-74
2020/12/03 06:05:42;;;;;;;4.63;2.28;;;7.60;76.70;;;;;;5010325;28;20033;-75
2020/12/03 06:08:33;;;;;;;3.83;2.45;;;7.60;76.70;;;;;;5015365;28;20035;-75
2020/12/03 06:11:17;;;;;;;2.85;2.20;;;7.60;76.70;;;;;;5018849;28;20131;-74
2020/12/03 06:14:01;;;;;;;4.82;2.20;;;7.60;76.70;;;;;;5009896;28;20038;-75
2020/12/03 06:16:39;;;;;;;4.40;2.35;;;7.60;76.70;;;;;;5016290;28;20107;-76
2020/12/03 06:19:24;;;;;;;4.28;2.10;;;7.60;76.70;;;;;;5003399;28;20042;-76
2020/12/03 06:21:53;;;;;;;3.67;2.13;;;7.60;76.70;;;;;;4991730;28;20587;-75
2020/12/03 06:24:22;;;;;;;5.10;2.55;;;7.60;76.70;;;;;;5009906;28;20057;-75
2020/12/03 06:27:05;;;;;;;4.07;2.33;;;7.50;76.50;;;;;;5008056;28;20087;-76
2020/12/03 06:30:11;;;;;;;3.08;1.90;;;7.50;76.60;;;;;;5011618;28;20133;-75
2020/12/03 06:33:21;;;;;;;3.70;2.00;;;7.50;76.60;;;;;;5004132;28;20048;-75
2020/12/03 06:36:04;;;;;;;3.22;1.90;;;7.60;76.80;;;;;;4986355;28;20347;-76
2020/12/03 06:38:51;;;;;;;5.45;1.90;;;7.60;76.80;;;;;;5018022;28;20531;-75
2020/12/03 06:41:39;;;;;;;3.65;2.00;;;7.60;76.80;;;;;;5026996;28;20055;-76
2020/12/03 06:44:13;;;;;;;2.60;1.70;;;7.60;76.80;;;;;;5027341;28;20033;-75
2020/12/03 06:46:51;;;;;;;3.40;2.20;;;7.60;76.80;;;;;;5027100;28;20411;-75
2020/12/03 06:49:41;;;;;;;3.05;2.13;;;7.60;76.80;;;;;;5026692;28;20033;-75
2020/12/03 06:52:25;;;;;;;2.95;1.60;;;7.60;76.70;;;;;;5024957;28;20030;-76
2020/12/03 06:55:05;;;;;;;2.33;1.83;;;7.60;76.70;;;;;;5000064;28;20505;-75
2020/12/03 06:57:55;;;;;;;2.40;1.60;;;7.60;76.70;;;;;;5019861;28;20490;-75
2020/12/03 07:00:39;;;;;;;2.30;1.83;;;7.60;76.70;;;;;;5026199;28;20060;-73
2020/12/03 07:03:26;;;;;;;3.53;2.08;;;7.60;76.70;;;;;;5028655;28;20045;-77
2020/12/03 07:06:10;;;;;;;2.65;1.77;;;7.60;76.80;;;;;;5027698;28;20056;-75
2020/12/03 07:09:13;;;;;;;2.95;2.20;;;7.60;76.80;;;;;;5023168;28;20033;-75
2020/12/03 07:11:54;;;;;;;4.13;2.15;;;7.60;77.00;;;;;;5027021;28;20072;-75
2020/12/03 07:15:12;;;;;;;2.15;1.83;;;7.60;77.00;;;;;;5010302;28;20037;-75
2020/12/03 07:18:20;;;;;;;3.38;2.13;;;7.60;76.90;;;;;;5026912;28;20056;-75
2020/12/03 07:21:17;;;;;;;3.78;1.70;;;7.70;77.10;;;;;;5026587;28;20034;-75
2020/12/03 07:24:07;;;;;;;2.95;1.73;;;7.70;77.10;;;;;;5026448;28;20211;-75
2020/12/03 07:26:57;;;;;;;3.50;1.90;;;7.60;76.90;;;;;;5028509;28;20026;-75
2020/12/03 07:29:32;;;;;;;4.25;2.05;;;7.60;76.90;;;;;;5026623;28;20044;-74
2020/12/03 07:32:04;;;;;;;3.13;1.92;;;7.70;77.10;;;;;;5025639;28;20029;-75
2020/12/03 07:34:49;;;;;;;3.70;2.03;;;7.60;76.90;;;;;;5027095;28;20164;-75
2020/12/03 07:37:27;;;;;;;3.97;2.00;;;7.70;77.20;;;;;;5027364;28;20143;-75
2020/12/03 07:39:54;;;;;;;3.38;1.98;;;7.70;77.20;;;;;;5027300;28;20133;-75
2020/12/03 07:42:23;;;;;;;3.03;2.33;;;7.60;77.00;;;;;;5026423;28;20132;-75
2020/12/03 07:44:56;;;;;;;4.75;2.45;;;7.70;77.20;;;;;;5010229;28;20453;-73
2020/12/03 07:47:34;;;;;;;2.28;1.60;;;7.70;77.20;;;;;;5026115;28;20373;-74
2020/12/03 07:50:06;;;;;;;3.00;1.75;;;7.60;77.00;;;;;;5008038;28;20378;-74
2020/12/03 07:52:33;;;;;;;5.22;1.70;;;7.60;77.00;;;;;;5008304;28;20374;-74
2020/12/03 07:55:21;;;;;;;2.53;1.73;;;7.60;77.00;;;;;;4990459;28;20045;-74
2020/12/03 07:57:47;;;;;;;3.58;2.22;;;7.70;77.20;;;;;;5009799;28;20547;-74
2020/12/03 08:00:51;;;;;;;2.50;1.77;;;7.60;77.00;;;;;;5025811;28;20045;-73
2020/12/03 08:03:43;;;;;;;2.92;1.83;;;7.70;77.20;;;;;;5009681;28;20136;-74
2020/12/03 08:06:15;;;;;;;2.42;1.92;;;7.60;77.10;;;;;;5009496;28;20041;-73
2020/12/03 08:08:50;;;;;;;2.83;1.92;;;7.60;77.10;;;;;;5027543;28;20490;-73
2020/12/03 08:11:57;;;;;;;3.05;1.73;;;7.60;77.00;;;;;;4993238;28;20175;-73
2020/12/03 08:14:36;;;;;;;2.88;1.90;;;7.60;77.00;;;;;;4985563;28;20057;-74
2020/12/03 08:17:25;;;;;;;2.17;1.65;;;7.60;77.00;;;;;;4968585;28;20034;-74
2020/12/03 08:20:03;;;;;;;2.53;1.70;;;7.60;77.00;;;;;;5015895;28;20037;-73
2020/12/03 08:22:35;;;;;;;2.85;1.73;;;7.60;77.00;;;;;;5027015;28;20402;-73
2020/12/03 08:25:08;;;;;;;3.05;1.60;;;7.60;77.50;;;;;;5023143;28;20116;-74
2020/12/03 08:27:35;;;;;;;3.90;2.15;;;7.60;77.00;;;;;;5026797;28;20444;-74
2020/12/03 08:30:00;;;;;;;2.67;1.88;;;7.60;77.10;;;;;;5027388;28;20353;-75
2020/12/03 08:32:46;;;;;;;3.00;2.00;;;7.60;77.00;;;;;;5026815;28;20021;-75
2020/12/03 08:35:12;;;;;;;7.18;2.00;;;7.60;77.00;;;;;;5027268;28;20130;-76
2020/12/03 08:37:38;;;;;;;2.83;2.28;;;7.70;77.20;;;;;;5025275;28;20064;-74
2020/12/03 08:40:04;;;;;;;1.42;1.33;;;7.60;77.10;;;;;;5027291;28;20160;-75
2020/12/03 08:42:30;;;;;;;1.83;1.55;;;7.60;77.10;;;;;;5026731;28;20132;-74
2020/12/03 08:44:56;;;;;;;3.28;1.98;;;7.60;77.10;;;;;;5026545;28;20161;-75
2020/12/03 08:47:46;;;;;;;1.70;1.48;;;7.60;77.10;;;;;;5025469;28;20072;-75
2020/12/03 08:50:16;;;;;;;2.10;1.90;;;7.60;77.10;;;;;;5008476;28;20196;-75
2020/12/03 08:52:44;;;;;;;2.35;1.90;;;7.60;77.10;;;;;;5008897;28;20485;-76
2020/12/03 08:55:11;;;;;;;4.05;2.03;;;7.70;77.20;;;;;;5025146;28;20045;-76
2020/12/03 08:57:39;;;;;;;2.78;1.75;;;7.60;77.10;;;;;;5026377;28;20048;-75
2020/12/03 09:00:08;;;;;;;2.63;1.60;;;7.70;77.30;;;;;;5026368;28;20029;-74
2020/12/03 09:02:35;;;;;;;3.42;1.70;;;7.70;77.20;;;;;;5026529;28;20041;-74
2020/12/03 09:05:02;;;;;;;1.85;1.75;;;7.70;77.20;;;;;;5026567;28;20086;-75
2020/12/03 09:07:31;;;;;;;1.73;1.60;;;7.70;77.20;;;;;;5026357;28;20063;-75
2020/12/03 09:09:59;;;;;;;1.60;1.50;;;7.70;77.20;;;;;;5026985;28;20524;-75
2020/12/03 09:12:29;;;;;;;2.05;1.40;;;7.70;77.20;;;;;;5024784;28;20400;-75
2020/12/03 09:14:59;;;;;;;1.80;1.60;;;7.70;77.70;;;;;;5026242;28;20452;-75
2020/12/03 09:17:29;;;;;;;3.35;2.08;;;7.70;77.20;;;;;;5025901;28;20829;-74
2020/12/03 09:20:01;;;;;;;2.42;1.80;;;7.70;77.20;;;;;;5024933;28;20025;-74
2020/12/03 09:22:28;;;;;;;3.30;1.90;;;7.70;77.20;;;;;;5026050;28;20045;-75
2020/12/03 09:24:56;;;;;;;4.63;1.70;;;7.70;77.20;;;;;;5024706;28;20041;-74
2020/12/03 09:27:23;;;;;;;2.03;1.50;;;7.70;77.20;;;;;;5024713;28;20045;-74
2020/12/03 09:29:50;;;;;;;2.22;1.75;;;7.70;77.20;;;;;;5026170;28;20032;-74
2020/12/03 09:32:20;;;;;;;2.08;1.65;;;7.80;77.40;;;;;;5025881;28;20029;-74
2020/12/03 09:34:48;;;;;;;4.57;1.75;;;7.70;77.20;;;;;;5024652;28;20068;-74
2020/12/03 09:37:14;;;;;;;2.58;1.70;;;7.80;77.40;;;;;;5025981;28;20033;-74
2020/12/03 09:39:41;;;;;;;2.53;1.45;;;7.80;77.40;;;;;;5024457;28;20033;-74
2020/12/03 09:42:12;;;;;;;2.20;1.55;;;7.80;77.40;;;;;;5026289;28;20040;-74
2020/12/03 09:44:40;;;;;;;2.22;1.55;;;7.80;77.40;;;;;;5023915;28;20045;-76
2020/12/03 09:47:11;;;;;;;3.28;1.90;;;7.80;77.30;;;;;;5025871;28;20060;-75
2020/12/03 09:49:44;;;;;;;2.70;1.88;;;7.80;77.30;;;;;;5024639;28;20029;-74
2020/12/03 09:52:11;;;;;;;1.60;1.38;;;7.80;77.30;;;;;;5025787;28;20114;-75
2020/12/03 09:54:39;;;;;;;2.20;1.55;;;7.90;77.50;;;;;;5024179;28;20473;-74
2020/12/03 09:57:08;;;;;;;3.97;1.40;;;7.90;77.50;;;;;;5025445;28;20476;-74
2020/12/03 09:59:36;;;;;;;5.15;1.45;;;7.90;77.50;;;;;;5024346;28;20469;-75
2020/12/03 10:02:07;;;;;;;2.13;1.52;;;7.90;77.40;;;;;;5025634;28;20080;-74
2020/12/03 10:05:11;;;;;;;2.20;1.63;;;7.90;77.40;;;;;;5025801;28;20048;-74
2020/12/03 10:07:40;;;;;;;1.88;1.48;;;8.00;77.60;;;;;;5025381;28;20475;-74
2020/12/03 10:10:19;;;;;;;3.85;1.90;;;7.90;77.30;;;;;;5023236;28;20036;-74
2020/12/03 10:12:54;;;;;;;1.10;1.05;;;8.00;77.50;;;;;;5025565;28;20040;-74
2020/12/03 10:15:59;;;;;;;4.60;2.03;;;8.00;77.50;;;;;;5046099;28;20037;-74
2020/12/03 10:18:33;;;;;;;;;;;8.00;77.50;;;;;;5037806;28;20117;-74
2020/12/03 10:20:59;;;;;;;2.53;2.10;;;8.00;77.40;;;;;;5023518;28;19927;-75
2020/12/03 10:23:38;;;;;;;3.58;1.85;;;8.10;77.40;;;;;;5024141;28;20056;-75
2020/12/03 10:26:30;;;;;;;2.00;1.33;;;8.10;77.50;;;;;;5025428;28;20033;-74
2020/12/03 10:29:13;;;;;;;2.45;1.40;;;8.10;77.50;;;;;;5024834;28;20128;-75
2020/12/03 10:31:41;;;;;;;1.95;1.10;;;8.10;77.40;;;;;;5024027;28;20046;-75
2020/12/03 10:34:07;;;;;;;1.92;1.48;;;8.20;77.60;;;;;;5025833;28;20030;-75
2020/12/03 10:36:49;;;;;;;2.00;1.60;;;8.20;77.60;;;;;;5024040;28;20032;-75
2020/12/03 10:39:17;;;;;;;1.55;1.30;;;8.20;77.60;;;;;;5023860;28;20399;-75
2020/12/03 10:41:53;;;;;;;1.55;1.45;;;8.20;77.60;;;;;;5023949;28;20046;-75
2020/12/03 10:44:27;;;;;;;1.45;1.23;;;8.20;77.60;;;;;;5007782;28;20021;-75
2020/12/03 10:46:58;;;;;;;2.10;1.40;;;8.30;77.70;;;;;;5006833;28;20126;-74
2020/12/03 10:49:26;;;;;;;3.75;1.83;;;8.30;77.70;;;;;;5025473;28;20026;-74
2020/12/03 10:51:58;;;;;;;1.92;1.48;;;8.30;77.70;;;;;;5006636;28;20029;-74
2020/12/03 10:54:25;;;;;;;1.50;1.40;;;8.30;77.60;;;;;;5025397;28;20443;-74
2020/12/03 10:56:52;;;;;;;2.10;1.33;;;8.30;77.60;;;;;;5027131;28;20123;-74
2020/12/03 10:59:25;;;;;;;1.10;1.10;;;8.30;77.70;;;;;;5028635;28;20033;-74
2020/12/03 11:01:54;;;;;;;1.52;1.42;;;8.40;77.80;;;;;;5028560;28;20110;-74
2020/12/03 11:04:23;;;;;;;2.83;1.27;;;8.40;77.80;;;;;;5027525;28;20030;-75
2020/12/03 11:06:49;;;;;;;1.92;1.30;;;8.40;77.80;;;;;;5028633;28;20042;-75
2020/12/03 11:09:18;;;;;;;1.70;1.38;;;8.50;78.00;;;;;;5027615;28;20031;-75
2020/12/03 11:11:44;;;;;;;2.55;1.40;;;8.50;78.10;;;;;;5028582;28;20255;-75
2020/12/03 11:14:11;;;;;;;2.13;1.48;;;8.50;78.00;;;;;;5027088;28;20281;-75
2020/12/03 11:16:53;;;;;;;2.53;1.25;;;8.60;78.10;;;;;;5028661;28;20033;-76
2020/12/03 11:19:23;;;;;;;1.42;1.30;;;8.60;78.10;;;;;;5027076;28;20026;-75
2020/12/03 11:22:02;;;;;;;1.35;1.25;;;8.60;78.10;;;;;;5027733;28;20053;-75
2020/12/03 11:24:37;;;;;;;1.60;1.50;;;8.60;78.10;;;;;;5026371;28;20124;-75
2020/12/03 11:27:04;;;;;;;1.42;1.20;;;8.60;78.10;;;;;;5026919;28;20030;-75
2020/12/03 11:29:38;;;;;;;2.38;1.58;;;8.70;78.20;;;;;;5027648;28;20132;-75
2020/12/03 11:32:04;;;;;;;2.60;1.65;;;8.70;78.20;;;;;;5027288;28;20503;-75
2020/12/03 11:34:37;;;;;;;0.98;0.98;;;8.70;78.10;;;;;;5028081;28;20033;-75
2020/12/03 11:37:04;;;;;;;1.30;1.20;;;8.80;78.30;;;;;;5028250;28;20065;-75
2020/12/03 11:39:31;;;;;;;2.97;1.35;;;8.80;78.20;;;;;;5027911;28;20037;-74
2020/12/03 11:42:27;;;;;;;1.25;1.15;;;8.80;78.20;;;;;;5027949;28;20053;-75
2020/12/03 11:48:19;;;;;;;3.17;1.40;;;8.80;78.20;;;;;;5028176;28;20045;-76
2020/12/03 11:50:13;;;;;;;1.27;1.17;;;8.90;78.30;;;;;;5023085;28;20338;-75
2020/12/03 11:52:39;;;;;;;1.50;1.13;;;8.90;78.30;;;;;;5027189;28;20474;-75
2020/12/03 11:55:17;;;;;;;2.03;1.30;;;8.90;78.30;;;;;;5027563;28;20500;-76
2020/12/03 11:57:43;;;;;;;1.58;1.38;;;9.00;78.40;;;;;;5025989;28;20044;-75
2020/12/03 12:00:20;;;;;;;1.55;1.45;;;9.00;78.40;;;;;;5009533;28;20037;-75
2020/12/03 12:02:50;;;;;;;4.53;1.60;;;9.10;78.60;;;;;;5027505;28;20501;-75
2020/12/03 12:08:33;;;;;;;1.40;1.30;;;9.20;78.70;;;;;;5024843;28;20047;-75
2020/12/03 12:11:26;;;;;;;1.77;1.38;;;9.20;78.60;;;;;;5026087;28;20022;-74
2020/12/03 12:13:46;;;;;;;1.40;1.30;;;9.20;78.50;;;;;;5027118;28;20041;-74
2020/12/03 12:16:12;;;;;;;1.38;1.27;;;9.30;78.60;;;;;;5026867;28;20405;-74
2020/12/03 12:18:38;;;;;;;1.52;1.08;;;9.30;78.60;;;;;;5025617;28;20104;-74
2020/12/03 12:21:07;;;;;;;1.42;1.33;;;9.40;78.70;;;;;;5009248;28;20038;-73
2020/12/03 12:23:33;;;;;;;1.27;1.17;;;9.40;78.70;;;;;;5008539;28;20034;-74
2020/12/03 12:25:59;;;;;;;2.33;1.30;;;9.40;78.60;;;;;;5026399;28;20029;-74
2020/12/03 12:28:25;;;;;;;3.28;1.33;;;9.40;78.50;;;;;;5025571;28;20034;-75
2020/12/03 12:30:51;;;;;;;3.28;1.45;;;9.50;78.60;;;;;;5026853;28;20033;-74
2020/12/03 12:33:17;;;;;;;1.30;1.20;;;9.50;78.60;;;;;;5024642;28;20503;-75
2020/12/03 12:35:43;;;;;;;1.80;1.50;;;9.60;78.70;;;;;;5026643;28;20025;-75
2020/12/03 12:38:08;;;;;;;1.45;1.35;;;9.50;78.50;;;;;;5026242;28;20033;-76
2020/12/03 12:40:34;;;;;;;1.40;1.30;;;9.60;78.60;;;;;;5026902;28;20113;-74
2020/12/03 12:43:00;;;;;;;1.35;1.25;;;9.60;78.60;;;;;;5025549;28;20048;-74
2020/12/03 12:45:26;;;;;;;1.20;1.10;;;9.60;78.50;;;;;;5025076;28;20044;-75
2020/12/03 12:47:52;;;;;;;1.10;1.08;;;9.60;78.50;;;;;;5007784;28;20056;-75
2020/12/03 12:50:18;;;;;;;1.30;1.20;;;9.60;78.50;;;;;;5026199;28;20032;-75
2020/12/03 12:52:44;;;;;;;1.38;1.27;;;9.70;78.60;;;;;;5025804;28;20049;-76
2020/12/03 12:55:10;;;;;;;1.27;1.10;;;9.70;78.60;;;;;;5024988;28;20146;-76
2020/12/03 12:57:36;;;;;;;1.13;1.10;;;9.70;78.60;;;;;;5024772;28;20117;-75
2020/12/03 13:00:03;;;;;;;1.33;1.10;;;9.70;78.60;;;;;;5024838;28;20033;-76
2020/12/03 13:02:29;;;;;;;1.58;1.48;;;9.70;78.50;;;;;;5008415;28;20087;-76
2020/12/03 13:04:55;;;;;;;1.73;1.60;;;9.70;78.50;;;;;;5026443;28;20404;-76
2020/12/03 13:07:21;;;;;;;1.38;1.27;;;9.80;78.70;;;;;;5023914;28;20045;-76
2020/12/03 13:09:47;;;;;;;1.48;1.20;;;9.70;78.50;;;;;;5038929;28;20298;-76
2020/12/03 13:12:13;;;;;;;2.05;1.40;;;9.70;79.00;;;;;;5030471;28;20029;-76
2020/12/03 13:14:39;;;;;;;1.98;1.63;;;9.70;78.50;;;;;;5021282;28;20026;-76
2020/12/03 13:17:05;;;;;;;2.53;1.30;;;9.80;78.70;;;;;;5025534;28;20025;-75
2020/12/03 13:19:31;;;;;;;3.08;1.42;;;9.80;78.60;;;;;;5023519;28;20133;-76
2020/12/03 13:21:58;;;;;;;1.50;1.25;;;9.80;78.60;;;;;;5024338;28;20033;-75
2020/12/03 13:24:24;;;;;;;1.50;1.35;;;9.80;78.50;;;;;;5025777;28;20033;-76
2020/12/03 13:26:51;;;;;;;1.50;1.40;;;9.80;78.50;;;;;;5008084;28;20033;-75
2020/12/03 13:29:17;;;;;;;1.80;1.70;;;9.80;78.50;;;;;;5024629;28;20025;-75